sensor_id;sensor_type;location;lat;lon;timestamp;pressure;altitude;pressure_sealevel;temperature;humidity
50302;BME280;36550;50.472;19.744;2023-06-14T00:01:09;98012.34;;;13.46;74.43
50302;BME280;36550;50.472;19.744;2023-06-14T00:03:54;98015.29;;;13.46;74.42
50302;BME280;36550;50.472;19.744;2023-06-14T00:06:39;98016.81;;;13.46;74.55
50302;BME280;36550;50.472;19.744;2023-06-14T00:09:25;98013.84;;;13.43;74.66
50302;BME280;36550;50.472;19.744;2023-06-14T00:12:09;98012.09;;;13.42;74.75
50302;BME280;36550;50.472;19.744;2023-06-14T00:14:53;98015.52;;;13.42;74.74
50302;BME280;36550;50.472;19.744;2023-06-14T00:17:36;98012.63;;;13.41;74.72
50302;BME280;36550;50.472;19.744;2023-06-14T00:20:22;98008.92;;;13.40;75.11
50302;BME280;36550;50.472;19.744;2023-06-14T00:23:06;98009.33;;;13.39;75.18
50302;BME280;36550;50.472;19.744;2023-06-14T00:25:50;98010.74;;;13.38;75.21
50302;BME280;36550;50.472;19.744;2023-06-14T00:28:33;98010.89;;;13.36;75.41
50302;BME280;36550;50.472;19.744;2023-06-14T00:31:18;98010.69;;;13.38;75.50
50302;BME280;36550;50.472;19.744;2023-06-14T00:34:02;98009.95;;;13.39;75.54
50302;BME280;36550;50.472;19.744;2023-06-14T00:36:46;98009.78;;;13.41;75.65
50302;BME280;36550;50.472;19.744;2023-06-14T00:39:30;98009.17;;;13.45;75.91
50302;BME280;36550;50.472;19.744;2023-06-14T00:42:27;98005.64;;;13.46;75.95
50302;BME280;36550;50.472;19.744;2023-06-14T00:45:12;98006.21;;;13.45;75.87
50302;BME280;36550;50.472;19.744;2023-06-14T00:47:56;98003.23;;;13.41;75.91
50302;BME280;36550;50.472;19.744;2023-06-14T00:50:40;98001.93;;;13.43;76.05
50302;BME280;36550;50.472;19.744;2023-06-14T00:53:24;98000.89;;;13.45;76.03
50302;BME280;36550;50.472;19.744;2023-06-14T00:56:09;98002.52;;;13.46;75.95
50302;BME280;36550;50.472;19.744;2023-06-14T00:58:53;98001.36;;;13.38;75.79
50302;BME280;36550;50.472;19.744;2023-06-14T01:01:37;97999.17;;;13.33;76.00
50302;BME280;36550;50.472;19.744;2023-06-14T01:04:23;98000.64;;;13.32;76.19
50302;BME280;36550;50.472;19.744;2023-06-14T01:07:26;97995.25;;;13.32;76.31
50302;BME280;36550;50.472;19.744;2023-06-14T01:10:25;97992.06;;;13.35;76.51
50302;BME280;36550;50.472;19.744;2023-06-14T01:13:18;97986.81;;;13.38;76.68
50302;BME280;36550;50.472;19.744;2023-06-14T01:16:05;97984.41;;;13.42;76.66
50302;BME280;36550;50.472;19.744;2023-06-14T01:18:52;97984.96;;;13.45;76.83
50302;BME280;36550;50.472;19.744;2023-06-14T01:21:39;97984.83;;;13.48;77.05
50302;BME280;36550;50.472;19.744;2023-06-14T01:24:25;97985.20;;;13.50;76.93
50302;BME280;36550;50.472;19.744;2023-06-14T01:27:16;97985.15;;;13.50;77.15
50302;BME280;36550;50.472;19.744;2023-06-14T01:30:00;97977.92;;;13.49;76.91
50302;BME280;36550;50.472;19.744;2023-06-14T01:32:49;97984.27;;;13.42;76.48
50302;BME280;36550;50.472;19.744;2023-06-14T01:35:35;97982.38;;;13.38;76.62
50302;BME280;36550;50.472;19.744;2023-06-14T01:38:22;97977.86;;;13.40;76.92
50302;BME280;36550;50.472;19.744;2023-06-14T01:41:06;97977.71;;;13.40;76.95
50302;BME280;36550;50.472;19.744;2023-06-14T01:43:51;97979.62;;;13.30;76.82
50302;BME280;36550;50.472;19.744;2023-06-14T01:46:36;97972.14;;;13.25;77.01
50302;BME280;36550;50.472;19.744;2023-06-14T01:49:20;97970.27;;;13.20;77.11
50302;BME280;36550;50.472;19.744;2023-06-14T01:52:04;97969.47;;;13.21;77.41
50302;BME280;36550;50.472;19.744;2023-06-14T01:54:52;97969.52;;;13.25;77.69
50302;BME280;36550;50.472;19.744;2023-06-14T01:57:36;97966.63;;;13.32;77.94
50302;BME280;36550;50.472;19.744;2023-06-14T02:00:21;97966.13;;;13.34;78.02
50302;BME280;36550;50.472;19.744;2023-06-14T02:03:05;97963.49;;;13.36;77.94
50302;BME280;36550;50.472;19.744;2023-06-14T02:05:49;97960.07;;;13.34;77.85
50302;BME280;36550;50.472;19.744;2023-06-14T02:08:33;97960.86;;;13.34;78.24
50302;BME280;36550;50.472;19.744;2023-06-14T02:11:17;97962.50;;;13.37;78.24
50302;BME280;36550;50.472;19.744;2023-06-14T02:14:01;97962.57;;;13.39;78.17
50302;BME280;36550;50.472;19.744;2023-06-14T02:16:45;97957.52;;;13.42;78.34
50302;BME280;36550;50.472;19.744;2023-06-14T02:19:32;97959.34;;;13.44;78.43
50302;BME280;36550;50.472;19.744;2023-06-14T02:22:16;97962.79;;;13.42;78.54
50302;BME280;36550;50.472;19.744;2023-06-14T02:25:01;97965.91;;;13.42;78.53
50302;BME280;36550;50.472;19.744;2023-06-14T02:27:45;97967.60;;;13.41;78.61
50302;BME280;36550;50.472;19.744;2023-06-14T02:30:28;97973.08;;;13.41;78.60
50302;BME280;36550;50.472;19.744;2023-06-14T02:33:12;97973.77;;;13.40;78.69
50302;BME280;36550;50.472;19.744;2023-06-14T02:35:56;97968.64;;;13.40;78.65
50302;BME280;36550;50.472;19.744;2023-06-14T02:38:41;97972.07;;;13.40;78.98
50302;BME280;36550;50.472;19.744;2023-06-14T02:41:25;97973.48;;;13.40;79.09
50302;BME280;36550;50.472;19.744;2023-06-14T02:44:09;97974.08;;;13.39;79.19
50302;BME280;36550;50.472;19.744;2023-06-14T02:46:55;97973.60;;;13.40;79.11
50302;BME280;36550;50.472;19.744;2023-06-14T02:49:39;97970.12;;;13.41;79.23
50302;BME280;36550;50.472;19.744;2023-06-14T02:52:23;97968.45;;;13.43;79.26
50302;BME280;36550;50.472;19.744;2023-06-14T02:55:08;97965.96;;;13.42;79.26
50302;BME280;36550;50.472;19.744;2023-06-14T02:57:53;97971.75;;;13.41;79.37
50302;BME280;36550;50.472;19.744;2023-06-14T03:00:37;97972.68;;;13.38;79.32
50302;BME280;36550;50.472;19.744;2023-06-14T03:03:21;97971.52;;;13.37;79.37
50302;BME280;36550;50.472;19.744;2023-06-14T03:06:08;97970.98;;;13.37;79.52
50302;BME280;36550;50.472;19.744;2023-06-14T03:08:52;97964.70;;;13.35;79.56
50302;BME280;36550;50.472;19.744;2023-06-14T03:11:38;97967.27;;;13.33;79.43
50302;BME280;36550;50.472;19.744;2023-06-14T03:14:22;97964.77;;;13.31;79.61
50302;BME280;36550;50.472;19.744;2023-06-14T03:17:06;97965.11;;;13.29;79.77
50302;BME280;36550;50.472;19.744;2023-06-14T03:19:51;97966.23;;;13.30;79.73
50302;BME280;36550;50.472;19.744;2023-06-14T03:22:35;97967.90;;;13.28;79.83
50302;BME280;36550;50.472;19.744;2023-06-14T03:25:19;97970.45;;;13.24;79.91
50302;BME280;36550;50.472;19.744;2023-06-14T03:28:05;97973.59;;;13.22;80.18
50302;BME280;36550;50.472;19.744;2023-06-14T03:30:48;97976.11;;;13.19;80.17
50302;BME280;36550;50.472;19.744;2023-06-14T03:33:33;97974.35;;;13.17;80.12
50302;BME280;36550;50.472;19.744;2023-06-14T03:36:17;97970.76;;;13.17;80.34
50302;BME280;36550;50.472;19.744;2023-06-14T03:39:01;97968.02;;;13.17;80.35
50302;BME280;36550;50.472;19.744;2023-06-14T03:41:45;97972.67;;;13.18;80.34
50302;BME280;36550;50.472;19.744;2023-06-14T03:44:29;97972.93;;;13.17;80.52
50302;BME280;36550;50.472;19.744;2023-06-14T03:47:14;97977.46;;;13.18;80.68
50302;BME280;36550;50.472;19.744;2023-06-14T03:49:58;97978.59;;;13.14;80.64
50302;BME280;36550;50.472;19.744;2023-06-14T03:52:42;97979.95;;;13.12;80.58
50302;BME280;36550;50.472;19.744;2023-06-14T03:55:27;97981.62;;;13.11;80.78
50302;BME280;36550;50.472;19.744;2023-06-14T03:58:11;97985.42;;;13.13;80.91
50302;BME280;36550;50.472;19.744;2023-06-14T04:00:56;97986.11;;;13.13;80.99
50302;BME280;36550;50.472;19.744;2023-06-14T04:03:40;97986.05;;;13.12;81.05
50302;BME280;36550;50.472;19.744;2023-06-14T04:06:24;97989.59;;;13.06;80.98
50302;BME280;36550;50.472;19.744;2023-06-14T04:09:15;97990.61;;;12.97;80.92
50302;BME280;36550;50.472;19.744;2023-06-14T04:11:59;97988.07;;;12.89;81.08
50302;BME280;36550;50.472;19.744;2023-06-14T04:14:43;97991.31;;;12.80;81.26
50302;BME280;36550;50.472;19.744;2023-06-14T04:17:27;97997.30;;;12.73;81.66
50302;BME280;36550;50.472;19.744;2023-06-14T04:20:11;97998.02;;;12.67;82.15
50302;BME280;36550;50.472;19.744;2023-06-14T04:22:56;97997.65;;;12.57;82.16
50302;BME280;36550;50.472;19.744;2023-06-14T04:25:41;98004.17;;;12.45;82.42
50302;BME280;36550;50.472;19.744;2023-06-14T04:28:28;98008.29;;;12.38;82.90
50302;BME280;36550;50.472;19.744;2023-06-14T04:31:12;98007.41;;;12.31;83.03
50302;BME280;36550;50.472;19.744;2023-06-14T04:33:56;98010.15;;;12.27;83.50
50302;BME280;36550;50.472;19.744;2023-06-14T04:36:41;98007.67;;;12.25;83.78
50302;BME280;36550;50.472;19.744;2023-06-14T04:39:33;98011.52;;;12.26;83.97
50302;BME280;36550;50.472;19.744;2023-06-14T04:42:17;98008.71;;;12.25;84.12
50302;BME280;36550;50.472;19.744;2023-06-14T04:45:04;98009.73;;;12.25;84.38
50302;BME280;36550;50.472;19.744;2023-06-14T04:47:48;98006.86;;;12.28;84.69
50302;BME280;36550;50.472;19.744;2023-06-14T04:50:32;98009.25;;;12.29;84.70
50302;BME280;36550;50.472;19.744;2023-06-14T04:53:16;98014.07;;;12.28;84.82
50302;BME280;36550;50.472;19.744;2023-06-14T04:56:00;98011.84;;;12.26;84.59
50302;BME280;36550;50.472;19.744;2023-06-14T04:58:44;98013.81;;;12.25;84.70
50302;BME280;36550;50.472;19.744;2023-06-14T05:01:30;98013.45;;;12.29;84.99
50302;BME280;36550;50.472;19.744;2023-06-14T05:04:15;98010.89;;;12.31;85.14
50302;BME280;36550;50.472;19.744;2023-06-14T05:06:59;98015.48;;;12.32;85.18
50302;BME280;36550;50.472;19.744;2023-06-14T05:09:45;98019.77;;;12.32;85.38
50302;BME280;36550;50.472;19.744;2023-06-14T05:12:29;98019.92;;;12.37;85.60
50302;BME280;36550;50.472;19.744;2023-06-14T05:15:13;98018.79;;;12.39;85.48
50302;BME280;36550;50.472;19.744;2023-06-14T05:17:56;98021.02;;;12.37;85.46
50302;BME280;36550;50.472;19.744;2023-06-14T05:20:41;98021.10;;;12.35;85.45
50302;BME280;36550;50.472;19.744;2023-06-14T05:23:25;98016.14;;;12.38;85.67
50302;BME280;36550;50.472;19.744;2023-06-14T05:26:09;98012.71;;;12.43;85.83
50302;BME280;36550;50.472;19.744;2023-06-14T05:28:54;98016.98;;;12.43;85.70
50302;BME280;36550;50.472;19.744;2023-06-14T05:31:40;98023.06;;;12.46;85.90
50302;BME280;36550;50.472;19.744;2023-06-14T05:34:24;98021.89;;;12.49;85.83
50302;BME280;36550;50.472;19.744;2023-06-14T05:37:08;98026.05;;;12.49;86.04
50302;BME280;36550;50.472;19.744;2023-06-14T05:39:52;98028.11;;;12.49;85.92
50302;BME280;36550;50.472;19.744;2023-06-14T05:42:36;98029.90;;;12.50;86.06
50302;BME280;36550;50.472;19.744;2023-06-14T05:45:20;98035.76;;;12.55;86.12
50302;BME280;36550;50.472;19.744;2023-06-14T05:48:04;98036.21;;;12.54;86.02
50302;BME280;36550;50.472;19.744;2023-06-14T05:50:48;98039.09;;;12.56;86.05
50302;BME280;36550;50.472;19.744;2023-06-14T05:53:32;98037.80;;;12.58;86.07
50302;BME280;36550;50.472;19.744;2023-06-14T05:56:17;98041.51;;;12.66;86.29
50302;BME280;36550;50.472;19.744;2023-06-14T05:59:01;98043.34;;;12.69;86.50
50302;BME280;36550;50.472;19.744;2023-06-14T06:01:46;98044.30;;;12.75;86.44
50302;BME280;36550;50.472;19.744;2023-06-14T06:04:30;98039.50;;;12.80;86.48
50302;BME280;36550;50.472;19.744;2023-06-14T06:07:14;98042.16;;;12.82;86.27
50302;BME280;36550;50.472;19.744;2023-06-14T06:09:58;98045.07;;;12.84;86.22
50302;BME280;36550;50.472;19.744;2023-06-14T06:12:42;98049.54;;;12.83;86.33
50302;BME280;36550;50.472;19.744;2023-06-14T06:15:26;98052.48;;;12.81;86.39
50302;BME280;36550;50.472;19.744;2023-06-14T06:18:10;98054.89;;;12.81;86.46
50302;BME280;36550;50.472;19.744;2023-06-14T06:20:54;98053.36;;;12.81;86.43
50302;BME280;36550;50.472;19.744;2023-06-14T06:23:39;98047.74;;;12.83;86.48
50302;BME280;36550;50.472;19.744;2023-06-14T06:26:23;98052.30;;;12.86;86.53
50302;BME280;36550;50.472;19.744;2023-06-14T06:29:07;98052.18;;;12.88;86.52
50302;BME280;36550;50.472;19.744;2023-06-14T06:31:51;98052.31;;;12.93;86.56
50302;BME280;36550;50.472;19.744;2023-06-14T06:34:35;98056.45;;;12.93;86.42
50302;BME280;36550;50.472;19.744;2023-06-14T06:37:19;98059.11;;;12.92;86.44
50302;BME280;36550;50.472;19.744;2023-06-14T06:40:03;98053.75;;;12.93;86.61
50302;BME280;36550;50.472;19.744;2023-06-14T06:42:49;98055.05;;;12.97;86.64
50302;BME280;36550;50.472;19.744;2023-06-14T06:45:33;98053.08;;;13.05;86.67
50302;BME280;36550;50.472;19.744;2023-06-14T06:48:17;98056.55;;;13.10;86.57
50302;BME280;36550;50.472;19.744;2023-06-14T06:51:01;98055.34;;;13.16;86.66
50302;BME280;36550;50.472;19.744;2023-06-14T06:53:52;98055.33;;;13.21;86.68
50302;BME280;36550;50.472;19.744;2023-06-14T06:56:36;98050.86;;;13.32;86.81
50302;BME280;36550;50.472;19.744;2023-06-14T06:59:20;98052.97;;;13.43;86.86
50302;BME280;36550;50.472;19.744;2023-06-14T07:02:04;98048.86;;;13.51;86.92
50302;BME280;36550;50.472;19.744;2023-06-14T07:04:49;98054.31;;;13.59;86.81
50302;BME280;36550;50.472;19.744;2023-06-14T07:07:34;98054.38;;;13.61;86.73
50302;BME280;36550;50.472;19.744;2023-06-14T07:10:18;98058.13;;;13.63;86.76
50302;BME280;36550;50.472;19.744;2023-06-14T07:13:02;98063.04;;;13.64;86.50
50302;BME280;36550;50.472;19.744;2023-06-14T07:15:47;98070.79;;;13.64;86.73
50302;BME280;36550;50.472;19.744;2023-06-14T07:18:31;98072.37;;;13.64;86.48
50302;BME280;36550;50.472;19.744;2023-06-14T07:21:15;98071.45;;;13.67;86.60
50302;BME280;36550;50.472;19.744;2023-06-14T07:23:59;98074.60;;;13.73;86.62
50302;BME280;36550;50.472;19.744;2023-06-14T07:26:43;98077.48;;;13.77;86.56
50302;BME280;36550;50.472;19.744;2023-06-14T07:29:26;98081.30;;;13.80;86.57
50302;BME280;36550;50.472;19.744;2023-06-14T07:32:11;98079.66;;;13.79;86.66
50302;BME280;36550;50.472;19.744;2023-06-14T07:34:55;98088.82;;;13.76;86.53
50302;BME280;36550;50.472;19.744;2023-06-14T07:37:38;98098.20;;;13.77;86.43
50302;BME280;36550;50.472;19.744;2023-06-14T07:40:22;98099.98;;;13.75;86.20
50302;BME280;36550;50.472;19.744;2023-06-14T07:43:06;98102.73;;;13.67;86.18
50302;BME280;36550;50.472;19.744;2023-06-14T07:45:50;98101.65;;;13.64;86.22
50302;BME280;36550;50.472;19.744;2023-06-14T07:48:34;98099.16;;;13.64;86.23
50302;BME280;36550;50.472;19.744;2023-06-14T07:51:19;98103.83;;;13.66;86.21
50302;BME280;36550;50.472;19.744;2023-06-14T07:54:03;98106.80;;;13.67;86.21
50302;BME280;36550;50.472;19.744;2023-06-14T07:56:47;98106.23;;;13.71;86.26
50302;BME280;36550;50.472;19.744;2023-06-14T07:59:31;98114.86;;;13.75;86.39
50302;BME280;36550;50.472;19.744;2023-06-14T08:02:15;98120.80;;;13.78;86.29
50302;BME280;36550;50.472;19.744;2023-06-14T08:05:00;98123.41;;;13.81;86.03
50302;BME280;36550;50.472;19.744;2023-06-14T08:07:44;98121.30;;;13.81;86.07
50302;BME280;36550;50.472;19.744;2023-06-14T08:10:28;98114.92;;;13.82;85.90
50302;BME280;36550;50.472;19.744;2023-06-14T08:13:12;98115.69;;;13.84;85.95
50302;BME280;36550;50.472;19.744;2023-06-14T08:15:56;98115.48;;;13.86;85.75
50302;BME280;36550;50.472;19.744;2023-06-14T08:18:40;98111.27;;;13.87;85.92
50302;BME280;36550;50.472;19.744;2023-06-14T08:21:25;98112.59;;;13.89;85.93
50302;BME280;36550;50.472;19.744;2023-06-14T08:24:11;98112.05;;;13.93;85.96
50302;BME280;36550;50.472;19.744;2023-06-14T08:26:57;98113.63;;;13.99;85.93
50302;BME280;36550;50.472;19.744;2023-06-14T08:29:41;98115.88;;;14.06;85.98
50302;BME280;36550;50.472;19.744;2023-06-14T08:32:25;98116.73;;;14.08;85.80
50302;BME280;36550;50.472;19.744;2023-06-14T08:35:09;98119.31;;;14.05;85.66
50302;BME280;36550;50.472;19.744;2023-06-14T08:37:53;98116.41;;;14.06;85.50
50302;BME280;36550;50.472;19.744;2023-06-14T08:40:37;98118.30;;;14.05;85.60
50302;BME280;36550;50.472;19.744;2023-06-14T08:43:24;98116.84;;;14.07;85.59
50302;BME280;36550;50.472;19.744;2023-06-14T08:46:08;98116.16;;;14.10;85.57
50302;BME280;36550;50.472;19.744;2023-06-14T08:48:55;98118.85;;;14.10;85.52
50302;BME280;36550;50.472;19.744;2023-06-14T08:51:40;98119.81;;;14.09;85.54
50302;BME280;36550;50.472;19.744;2023-06-14T08:54:27;98119.05;;;14.07;85.58
50302;BME280;36550;50.472;19.744;2023-06-14T08:57:12;98120.63;;;14.06;85.51
50302;BME280;36550;50.472;19.744;2023-06-14T08:59:59;98124.54;;;14.06;85.48
50302;BME280;36550;50.472;19.744;2023-06-14T09:02:48;98127.40;;;14.08;85.65
50302;BME280;36550;50.472;19.744;2023-06-14T09:05:32;98132.17;;;14.12;85.72
50302;BME280;36550;50.472;19.744;2023-06-14T09:08:16;98132.64;;;14.18;85.82
50302;BME280;36550;50.472;19.744;2023-06-14T09:11:01;98135.98;;;14.21;85.72
50302;BME280;36550;50.472;19.744;2023-06-14T09:13:46;98136.45;;;14.21;85.71
50302;BME280;36550;50.472;19.744;2023-06-14T09:16:32;98137.51;;;14.20;85.55
50302;BME280;36550;50.472;19.744;2023-06-14T09:19:25;98138.93;;;14.20;85.63
50302;BME280;36550;50.472;19.744;2023-06-14T09:22:11;98139.72;;;14.20;85.61
50302;BME280;36550;50.472;19.744;2023-06-14T09:24:55;98139.84;;;14.21;85.64
50302;BME280;36550;50.472;19.744;2023-06-14T09:27:39;98144.23;;;14.23;85.69
50302;BME280;36550;50.472;19.744;2023-06-14T09:30:24;98141.98;;;14.25;85.80
50302;BME280;36550;50.472;19.744;2023-06-14T09:33:08;98145.78;;;14.27;85.77
50302;BME280;36550;50.472;19.744;2023-06-14T09:35:54;98147.48;;;14.29;85.86
50302;BME280;36550;50.472;19.744;2023-06-14T09:38:40;98148.61;;;14.32;85.53
50302;BME280;36550;50.472;19.744;2023-06-14T09:44:17;98150.70;;;14.38;85.68
50302;BME280;36550;50.472;19.744;2023-06-14T09:47:02;98150.05;;;14.42;85.80
50302;BME280;36550;50.472;19.744;2023-06-14T09:49:47;98147.95;;;14.46;85.65
50302;BME280;36550;50.472;19.744;2023-06-14T09:52:32;98148.98;;;14.51;85.64
50302;BME280;36550;50.472;19.744;2023-06-14T09:55:16;98145.75;;;14.55;85.71
50302;BME280;36550;50.472;19.744;2023-06-14T09:58:04;98147.11;;;14.63;85.81
50302;BME280;36550;50.472;19.744;2023-06-14T10:00:50;98146.52;;;14.74;85.66
50302;BME280;36550;50.472;19.744;2023-06-14T10:03:37;98143.60;;;14.90;86.03
50302;BME280;36550;50.472;19.744;2023-06-14T10:06:22;98147.08;;;15.08;85.95
50302;BME280;36550;50.472;19.744;2023-06-14T10:09:09;98150.50;;;15.22;85.68
50302;BME280;36550;50.472;19.744;2023-06-14T10:11:54;98148.63;;;15.36;85.87
50302;BME280;36550;50.472;19.744;2023-06-14T10:14:39;98147.42;;;15.48;85.64
50302;BME280;36550;50.472;19.744;2023-06-14T10:17:49;98144.90;;;15.60;85.58
50302;BME280;36550;50.472;19.744;2023-06-14T10:20:48;98147.38;;;15.78;85.39
50302;BME280;36550;50.472;19.744;2023-06-14T10:23:38;98146.12;;;15.92;85.11
50302;BME280;36550;50.472;19.744;2023-06-14T10:26:23;98146.21;;;15.96;84.58
50302;BME280;36550;50.472;19.744;2023-06-14T10:29:08;98150.23;;;15.95;84.24
50302;BME280;36550;50.472;19.744;2023-06-14T10:31:57;98149.92;;;15.97;84.37
50302;BME280;36550;50.472;19.744;2023-06-14T10:34:41;98145.25;;;16.00;84.16
50302;BME280;36550;50.472;19.744;2023-06-14T10:37:26;98144.24;;;16.03;84.22
50302;BME280;36550;50.472;19.744;2023-06-14T10:40:30;98140.27;;;16.05;84.00
50302;BME280;36550;50.472;19.744;2023-06-14T10:43:24;98140.22;;;16.10;83.90
50302;BME280;36550;50.472;19.744;2023-06-14T10:46:20;98136.77;;;16.14;83.51
50302;BME280;36550;50.472;19.744;2023-06-14T10:49:07;98133.89;;;16.23;83.60
50302;BME280;36550;50.472;19.744;2023-06-14T10:51:57;98136.55;;;16.23;83.09
50302;BME280;36550;50.472;19.744;2023-06-14T10:55:05;98134.95;;;16.24;82.72
50302;BME280;36550;50.472;19.744;2023-06-14T10:57:56;98136.09;;;16.35;83.19
50302;BME280;36550;50.472;19.744;2023-06-14T11:00:43;98138.98;;;16.51;83.35
50302;BME280;36550;50.472;19.744;2023-06-14T11:03:43;98137.02;;;16.65;83.04
50302;BME280;36550;50.472;19.744;2023-06-14T11:10:37;98128.41;;;16.89;81.86
50302;BME280;36550;50.472;19.744;2023-06-14T11:13:24;98129.23;;;16.96;81.91
50302;BME280;36550;50.472;19.744;2023-06-14T11:16:17;98129.50;;;17.05;81.54
50302;BME280;36550;50.472;19.744;2023-06-14T11:19:02;98132.09;;;17.18;81.54
50302;BME280;36550;50.472;19.744;2023-06-14T11:21:49;98127.58;;;17.26;81.39
50302;BME280;36550;50.472;19.744;2023-06-14T11:24:34;98125.98;;;17.37;81.20
50302;BME280;36550;50.472;19.744;2023-06-14T11:27:18;98126.64;;;17.48;81.26
50302;BME280;36550;50.472;19.744;2023-06-14T11:30:02;98128.29;;;17.64;81.22
50302;BME280;36550;50.472;19.744;2023-06-14T11:32:50;98121.66;;;17.69;80.37
50302;BME280;36550;50.472;19.744;2023-06-14T11:35:35;98121.74;;;17.71;79.94
50302;BME280;36550;50.472;19.744;2023-06-14T11:38:19;98117.56;;;17.70;79.42
50302;BME280;36550;50.472;19.744;2023-06-14T11:41:03;98114.42;;;17.56;78.47
50302;BME280;36550;50.472;19.744;2023-06-14T11:43:47;98116.48;;;17.37;78.25
50302;BME280;36550;50.472;19.744;2023-06-14T11:46:31;98112.08;;;17.21;78.33
50302;BME280;36550;50.472;19.744;2023-06-14T11:49:15;98112.84;;;17.07;78.15
50302;BME280;36550;50.472;19.744;2023-06-14T11:52:00;98110.77;;;16.86;78.00
50302;BME280;36550;50.472;19.744;2023-06-14T11:54:47;98106.89;;;16.73;78.22
50302;BME280;36550;50.472;19.744;2023-06-14T11:57:35;98104.73;;;16.68;78.62
50302;BME280;36550;50.472;19.744;2023-06-14T12:00:25;98103.19;;;16.68;78.77
50302;BME280;36550;50.472;19.744;2023-06-14T12:03:11;98102.35;;;16.67;78.94
50302;BME280;36550;50.472;19.744;2023-06-14T12:06:07;98099.31;;;16.72;79.31
50302;BME280;36550;50.472;19.744;2023-06-14T12:08:56;98100.23;;;16.82;79.32
50302;BME280;36550;50.472;19.744;2023-06-14T12:11:40;98096.55;;;16.91;79.68
50302;BME280;36550;50.472;19.744;2023-06-14T12:14:31;98094.83;;;16.97;79.22
50302;BME280;36550;50.472;19.744;2023-06-14T12:17:16;98092.61;;;16.93;78.89
50302;BME280;36550;50.472;19.744;2023-06-14T12:20:19;98095.54;;;16.91;78.95
50302;BME280;36550;50.472;19.744;2023-06-14T12:23:05;98095.11;;;16.92;79.12
50302;BME280;36550;50.472;19.744;2023-06-14T12:25:50;98097.77;;;16.98;79.20
50302;BME280;36550;50.472;19.744;2023-06-14T12:28:35;98093.77;;;17.03;79.05
50302;BME280;36550;50.472;19.744;2023-06-14T12:31:20;98092.77;;;17.03;78.64
50302;BME280;36550;50.472;19.744;2023-06-14T12:34:04;98092.58;;;17.00;78.68
50302;BME280;36550;50.472;19.744;2023-06-14T12:36:50;98093.65;;;16.97;78.46
50302;BME280;36550;50.472;19.744;2023-06-14T12:39:34;98089.02;;;16.91;78.54
50302;BME280;36550;50.472;19.744;2023-06-14T12:42:19;98094.28;;;16.88;78.39
50302;BME280;36550;50.472;19.744;2023-06-14T12:45:04;98094.58;;;16.92;78.79
50302;BME280;36550;50.472;19.744;2023-06-14T12:47:48;98092.08;;;17.03;79.07
50302;BME280;36550;50.472;19.744;2023-06-14T12:50:33;98095.69;;;17.09;78.87
50302;BME280;36550;50.472;19.744;2023-06-14T12:53:19;98092.69;;;17.07;78.34
50302;BME280;36550;50.472;19.744;2023-06-14T12:56:05;98093.59;;;17.00;78.20
50302;BME280;36550;50.472;19.744;2023-06-14T12:58:49;98097.90;;;16.96;78.51
50302;BME280;36550;50.472;19.744;2023-06-14T13:01:33;98095.26;;;16.95;78.47
50302;BME280;36550;50.472;19.744;2023-06-14T13:04:18;98094.80;;;16.87;78.47
50302;BME280;36550;50.472;19.744;2023-06-14T13:07:02;98096.73;;;16.87;78.38
50302;BME280;36550;50.472;19.744;2023-06-14T13:09:47;98086.59;;;16.89;78.47
50302;BME280;36550;50.472;19.744;2023-06-14T13:12:31;98091.39;;;16.94;78.66
50302;BME280;36550;50.472;19.744;2023-06-14T13:15:15;98094.67;;;16.95;78.52
50302;BME280;36550;50.472;19.744;2023-06-14T13:18:00;98100.45;;;16.97;78.51
50302;BME280;36550;50.472;19.744;2023-06-14T13:20:46;98101.91;;;17.01;78.71
50302;BME280;36550;50.472;19.744;2023-06-14T13:23:30;98108.77;;;17.07;78.80
50302;BME280;36550;50.472;19.744;2023-06-14T13:26:15;98106.66;;;17.11;78.67
50302;BME280;36550;50.472;19.744;2023-06-14T13:28:59;98106.70;;;17.14;78.70
50302;BME280;36550;50.472;19.744;2023-06-14T13:31:44;98102.93;;;17.06;77.57
50302;BME280;36550;50.472;19.744;2023-06-14T13:34:29;98104.17;;;16.77;77.03
50302;BME280;36550;50.472;19.744;2023-06-14T13:37:13;98107.92;;;16.54;77.17
50302;BME280;36550;50.472;19.744;2023-06-14T13:39:58;98103.36;;;16.35;77.19
50302;BME280;36550;50.472;19.744;2023-06-14T13:42:43;98100.48;;;16.20;77.19
50302;BME280;36550;50.472;19.744;2023-06-14T13:45:27;98097.44;;;16.08;77.56
50302;BME280;36550;50.472;19.744;2023-06-14T13:48:12;98102.98;;;15.98;77.87
50302;BME280;36550;50.472;19.744;2023-06-14T13:50:56;98105.66;;;15.93;78.25
50302;BME280;36550;50.472;19.744;2023-06-14T13:53:41;98104.14;;;15.91;78.21
50302;BME280;36550;50.472;19.744;2023-06-14T13:56:26;98099.00;;;15.87;78.29
50302;BME280;36550;50.472;19.744;2023-06-14T13:59:10;98097.79;;;15.85;78.48
50302;BME280;36550;50.472;19.744;2023-06-14T14:01:54;98098.58;;;15.81;78.42
50302;BME280;36550;50.472;19.744;2023-06-14T14:04:39;98098.80;;;15.78;78.68
50302;BME280;36550;50.472;19.744;2023-06-14T14:07:24;98099.11;;;15.76;78.65
50302;BME280;36550;50.472;19.744;2023-06-14T14:10:09;98097.63;;;15.75;78.74
50302;BME280;36550;50.472;19.744;2023-06-14T14:12:55;98097.91;;;15.78;78.84
50302;BME280;36550;50.472;19.744;2023-06-14T14:15:40;98095.26;;;15.79;78.94
50302;BME280;36550;50.472;19.744;2023-06-14T14:18:25;98098.36;;;15.74;78.61
50302;BME280;36550;50.472;19.744;2023-06-14T14:21:10;98098.92;;;15.60;78.36
50302;BME280;36550;50.472;19.744;2023-06-14T14:23:54;98097.23;;;15.51;78.35
50302;BME280;36550;50.472;19.744;2023-06-14T14:26:39;98097.98;;;15.44;78.56
50302;BME280;36550;50.472;19.744;2023-06-14T14:29:27;98095.70;;;15.44;78.91
50302;BME280;36550;50.472;19.744;2023-06-14T14:32:14;98089.15;;;15.46;79.14